KWYS Airport Information

Runway Information
Runway 01 Length 8399 ft width 150 ft
Elevation 6644 ft Threshold 0 ft Heading 26
Runway 19 Length 8399 ft Width 150 ft
Elevation 6629 ft Threshold 0 ft Heading 206
Airport Frequencies
Type CNTR Name SALT LAKE Frequency 132.4 MHZ
Type RDO Name GREAT FALL Frequency 119.4 MHZ
Type UNIC Name CTAF/UNICO Frequency 123 MHZ
Airport Navaids
Type NDB Name Targy Frequency 415 KHZ
Airport Weather Information & NOTAM
ADDS - METARS form results

(1953 UTC 23 September 2018)
Data provider http://aviationweather.gov/metar/data/
 
METAR text: KWYS 231935Z AUTO 23015KT 10SM CLR 13/M04 A3003 RMK AO2
Conditions at: KWYS (WEST YELLOWSTONE, MT, US) observed 1935 UTC 23 September 2018
Temperature: 13.0°C (55°F)
Dewpoint: -4.0°C (25°F) [RH = 30%]
Pressure (altimeter): 30.03 inches Hg (1017.0 mb)
Winds: from the SW (230 degrees) at 17 MPH (15 knots; 7.7 m/s)
Visibility: 10 or more miles (16+ km)
Ceiling: at least 12,000 feet AGL
Clouds: sky clear below 12,000 feet AGL
Weather: automated observation with no human augmentation;
there may or may not be significant weather present at this time

METAR text: KWYS 231915Z AUTO 22014G22KT 10SM CLR 13/M04 A3002 RMK AO2
Conditions at: KWYS (WEST YELLOWSTONE, MT, US) observed 1915 UTC 23 September 2018
Temperature: 13.0°C (55°F)
Dewpoint: -4.0°C (25°F) [RH = 30%]
Pressure (altimeter): 30.02 inches Hg (1016.7 mb)
Winds: from the SW (220 degrees) at 16 MPH (14 knots; 7.2 m/s)
gusting to 25 MPH (22 knots; 11.3 m/s)
Visibility: 10 or more miles (16+ km)
Ceiling: at least 12,000 feet AGL
Clouds: sky clear below 12,000 feet AGL
Weather: automated observation with no human augmentation;
there may or may not be significant weather present at this time

METAR text: KWYS 231855Z AUTO 23014G21KT 10SM CLR 14/M04 A3001 RMK AO2
Conditions at: KWYS (WEST YELLOWSTONE, MT, US) observed 1855 UTC 23 September 2018
Temperature: 14.0°C (57°F)
Dewpoint: -4.0°C (25°F) [RH = 28%]
Pressure (altimeter): 30.01 inches Hg (1016.3 mb)
Winds: from the SW (230 degrees) at 16 MPH (14 knots; 7.2 m/s)
gusting to 24 MPH (21 knots; 10.8 m/s)
Visibility: 10 or more miles (16+ km)
Ceiling: at least 12,000 feet AGL
Clouds: sky clear below 12,000 feet AGL
Weather: automated observation with no human augmentation;
there may or may not be significant weather present at this time